Relevés horaires Bierset (Belgique)


Relevés horaires à Bierset - Vendredi 08 Sept. 2023
Heure UTC1 Température [°C] Vent [km/h] Hum. [%] Pres.4 [hPa] Visi. [Km] Nébu. [octa] Préc.5 [mm] Cond.
2m. Res. Ros. Dir.2 Vit. Moy. Raf.3
23:00 21.7 21.7 17.2 SE 7.4 7.4 14.8 76 1016.8(-0.4/3h) 30 1/8 -- --
22:00 22.3 22.3 17.3 SSE 5.6 5.6 14.8 73 1017(0.0/3h) 30 1/8 -- --
21:00 23.3 23.3 17.2 SE 5.6 5.6 7.4 69 1017(0.4/3h) 30 1/8 -- --
20:00 24.8 24.8 16.4 NNO 1.9 3.7 7.4 60 1017(0.5/3h) 30 1/8 -- --
19:00 25.7 25.7 16.2 NE 3.7 3.7 3.7 56 1016.7(0.3/3h) 30 1/8 -- --
18:00 26.6 26.6 16.6 N 1.9 7.4 14.8 54 1016.4(-0.2/3h) 30 1/8 0/12h
--
17:00 27.6 27.6 17.6 NO 3.7 5.6 7.4 55 1016.3(-0.3/3h) 30 1/8 -- --
16:00 28.3 28.3 15.9 ONO 5.6 5.6 7.4 47 1016.3(-0.7/3h) 30 1/8 -- --
15:00 29.0 29.0 15.3 OSO 3.7 7.4 14.8 43 1016.4(-0.7/3h) 30 1/8 -- --
14:00 29.0 29.0 15.9 OSO 3.7 7.4 11.1 45 1016.5(-0.6/3h) 30 1/8 -- --
13:00 29.0 29.0 17.0 NNO 3.7 7.4 14.8 48 1016.9(-0.3/3h) 30 1/8 -- --
12:00 28.0 28.0 16.7 SSO 5.6 9.3 20.4 50 1017.1(-0.1/3h) 30 1/8 0/6h
--
11:00 27.2 27.2 15.9 S 3.7 5.6 9.3 50 1017.3(0.1/3h) 30 0/8 -- --
10:00 26.3 26.3 16.4 SSO 3.7 7.4 14.8 55 1017.4(0.3/3h) 30 0/8 -- --
09:00 24.6 24.6 15.7 S 5.6 9.3 20.4 58 1017.5(0.6/3h) 30 0/8 -- --
08:00 22.5 22.5 14.7 SSE 7.4 7.4 14.8 61 1017.5(0.7/3h) 30 0/8 -- --
07:00 20.9 20.9 13.9 S 7.4 9.3 18.5 64 1017.4(0.5/3h) 30 0/8 -- --
06:00 20.1 20.1 13.3 SSE 7.4 7.4 18.5 65 1017.2(0.0/3h) 30 0/8 0/12h
--
05:00 19.8 19.8 13.5 SSE 7.4 7.4 14.8 67 1017(-0.4/3h) 30 0/8 -- --
04:00 19.7 19.7 13.9 SSE 5.6 7.4 13.0 69 1017(-0.5/3h) 30 0/8 -- --
03:00 20.8 20.8 13.7 S 7.4 7.4 13.0 64 1017.2(-0.3/3h) 30 0/8 -- --
02:00 20.6 20.6 13.7 SSE 5.6 5.6 13.0 65 1017.4(-0.1/3h) 30 0/8 -- --
01:00 20.8 20.8 13.8 SSE 5.6 7.4 13.0 64 1017.4(-0.4/3h) 30 0/8 -- --
00:00 21.4 21.4 13.5 SE 7.4 7.4 14.8 61 1017.4(-0.5/3h) 30 0/8 0/6h
0/24h
--

1 Coordinated Universal Time. Actuellement il est 03:00 locale et 01:00 UTC.

2 Le vent souffle depuis la direction indiquée vers la direction oposée.

3 Les rafales max. sont disponible 40 min après l'heure du relevé.

4 Pour les stations d'altitude (plus de 600m) le géopotentiel du niveau le plus proche de la pression obligatoire est indiqué.

5 Les stations disposant d'un diffuseur peuvent indiquer "trace". Cela signifie que des précipitations ont touchés le sol mais que la quantité est inférieure à 0.1 mm.

Récapitulatif de la journée
Température [°C] Vent [km/h] Ensoleillement4 [h] Precipitations totale5 [mm] Pression [Hpa]
Min1 Max.2 Moy.3 Max. Min Max.
19.5 29.6 6.9 20.4 0 h 0 min 0 1016.3 1017.5

1 Température minimale relevée entre 18:00 UTC la veille et 18:00 UTC le jour donné.

2 Température maximale relevée entre 06:00 UTC le jour donné et 06:00 UTC le lendemain.

3 Vent moyen de la journée basé sur les relevés horaires.

4 Ensoleillement en heures relevé entre 06:00 UTC la veille et 06:00 UTC le jour donné.

5 Précipitations totales tombées entre 06:00 UTC la jour donné et 06:00 UTC le lendemain.

Graphiques horaires